createdAt,value
2023-01-06T00:01:48.278Z,49.55
2023-01-06T00:06:44.525Z,49.80
2023-01-06T00:11:40.753Z,47.92
2023-01-06T00:16:37.031Z,50.97
2023-01-06T00:21:33.259Z,52.65
2023-01-06T00:26:29.508Z,51.28
2023-01-06T00:31:25.856Z,51.72
2023-01-06T00:36:22.228Z,55.75
2023-01-06T00:41:42.542Z,53.95
2023-01-06T00:46:38.867Z,56.17
2023-01-06T00:51:36.416Z,57.05
2023-01-06T00:56:35.180Z,55.33
2023-01-06T01:01:31.565Z,54.72
2023-01-06T01:06:28.035Z,56.47
2023-01-06T01:11:43.409Z,56.70
2023-01-06T01:16:39.778Z,57.70
2023-01-06T01:21:36.077Z,54.13
2023-01-06T01:26:32.386Z,56.75
2023-01-06T01:31:28.764Z,55.22
2023-01-06T01:36:25.357Z,55.85
2023-01-06T01:41:22.514Z,56.95
2023-01-06T01:46:22.578Z,55.28
2023-01-06T01:51:21.250Z,55.30
2023-01-06T01:56:21.142Z,59.67
2023-01-06T02:01:17.891Z,57.80
2023-01-06T02:06:16.962Z,65.88
2023-01-06T02:11:13.784Z,58.70
2023-01-06T02:16:22.235Z,60.70
2023-01-06T02:21:18.464Z,74.13
2023-01-06T02:26:27.302Z,58.60
2023-01-06T02:31:23.593Z,53.92
2023-01-06T02:36:29.001Z,58.60
2023-01-06T02:41:28.297Z,56.80
2023-01-06T02:46:24.535Z,57.95
2023-01-06T02:51:26.255Z,55.97
2023-01-06T02:56:24.691Z,59.40
2023-01-06T03:01:24.027Z,55.47
2023-01-06T03:06:25.852Z,59.13
2023-01-06T03:11:22.776Z,56.97
2023-01-06T03:16:19.523Z,58.20
2023-01-06T03:21:22.848Z,58.65
2023-01-06T03:26:20.234Z,63.28
2023-01-06T03:31:29.226Z,62.45
2023-01-06T03:36:25.523Z,62.78
2023-01-06T03:41:47.315Z,65.13
2023-01-06T03:46:51.070Z,64.55
2023-01-06T03:52:13.388Z,62.42
2023-01-06T03:57:09.616Z,63.60
2023-01-06T04:02:06.207Z,66.85
2023-01-06T04:07:02.594Z,64.93
2023-01-06T04:12:17.497Z,66.35
2023-01-06T04:17:13.830Z,62.58
2023-01-06T04:22:10.094Z,64.22
2023-01-06T04:27:06.326Z,62.88
2023-01-06T04:32:02.696Z,60.65
2023-01-06T04:36:58.928Z,62.20
2023-01-06T04:41:55.223Z,62.28
2023-01-06T04:46:51.420Z,61.58
2023-01-06T04:51:47.630Z,59.92
2023-01-06T04:56:43.956Z,60.42
2023-01-06T05:01:40.291Z,63.85
2023-01-06T05:06:36.657Z,62.92
2023-01-06T05:11:33.782Z,61.10
2023-01-06T05:16:31.413Z,63.67
2023-01-06T05:21:32.243Z,62.60
2023-01-06T05:26:29.230Z,61.35
2023-01-06T05:31:25.668Z,60.85
2023-01-06T05:36:22.041Z,64.07
2023-01-06T05:41:18.745Z,59.83
2023-01-06T05:46:15.270Z,59.42
2023-01-06T05:51:15.684Z,59.55
2023-01-06T05:56:13.506Z,61.85
2023-01-06T06:01:16.595Z,59.38
2023-01-06T06:06:13.137Z,58.47
2023-01-06T06:11:10.862Z,58.88
2023-01-06T06:16:08.644Z,60.08
2023-01-06T06:21:05.067Z,59.22
2023-01-06T06:26:02.418Z,59.55
2023-01-06T06:31:09.583Z,60.22
2023-01-06T06:36:06.341Z,64.07
2023-01-06T06:41:03.743Z,61.88
2023-01-06T06:46:00.255Z,61.75
2023-01-06T06:51:00.508Z,65.97
2023-01-06T06:55:56.996Z,66.57
2023-01-06T07:00:54.388Z,67.22
2023-01-06T07:05:51.560Z,66.32
2023-01-06T07:10:47.773Z,62.97
2023-01-06T07:15:44.133Z,64.03
2023-01-06T07:20:40.614Z,67.40
2023-01-06T07:25:36.916Z,62.72
2023-01-06T07:30:34.251Z,66.40
2023-01-06T07:35:30.534Z,65.70
2023-01-06T07:40:26.972Z,63.75
2023-01-06T07:45:23.376Z,63.35
2023-01-06T07:50:19.707Z,63.00
2023-01-06T07:55:16.037Z,64.50
2023-01-06T08:00:12.659Z,61.95
2023-01-06T08:05:09.068Z,62.35
2023-01-06T08:10:05.654Z,65.32
2023-01-06T08:15:01.883Z,65.45
2023-01-06T08:19:58.141Z,62.83
2023-01-06T08:24:54.451Z,64.57
2023-01-06T08:29:52.057Z,64.57
2023-01-06T08:34:48.891Z,65.65
2023-01-06T08:39:45.505Z,61.10
2023-01-06T08:44:41.835Z,58.55
2023-01-06T08:49:38.304Z,58.15
2023-01-06T08:54:34.591Z,52.75
2023-01-06T08:59:30.948Z,50.65
2023-01-06T09:04:27.284Z,53.30
2023-01-06T09:09:23.581Z,53.55
2023-01-06T09:14:19.822Z,54.28
2023-01-06T09:19:16.807Z,57.15
2023-01-06T09:24:13.918Z,55.42
2023-01-06T09:29:10.264Z,55.63
2023-01-06T09:34:06.635Z,58.30
2023-01-06T09:39:02.960Z,56.10
2023-01-06T09:43:59.227Z,53.40
2023-01-06T09:49:01.613Z,53.05
2023-01-06T09:54:15.390Z,54.70
2023-01-06T09:59:14.384Z,49.30
2023-01-06T10:04:25.832Z,52.25
2023-01-06T10:09:44.796Z,57.08
2023-01-06T10:14:59.829Z,54.50
2023-01-06T10:20:06.756Z,57.25
2023-01-06T10:25:21.831Z,55.60
2023-01-06T10:30:30.164Z,52.88
2023-01-06T10:35:27.414Z,53.75
2023-01-06T10:40:27.874Z,49.80
2023-01-06T10:45:44.480Z,49.30
2023-01-06T10:50:41.385Z,46.70
2023-01-06T10:55:52.861Z,49.95
2023-01-06T11:00:59.598Z,49.35
2023-01-06T11:06:00.587Z,49.42
2023-01-06T11:10:57.463Z,50.95
2023-01-06T11:15:56.006Z,47.53
2023-01-06T11:21:03.461Z,49.83
2023-01-06T11:26:00.989Z,51.60
2023-01-06T11:31:02.243Z,50.47
2023-01-06T11:35:59.229Z,49.80
2023-01-06T11:40:55.566Z,57.38
2023-01-06T11:45:56.774Z,57.08
2023-01-06T11:50:55.101Z,46.22
2023-01-06T11:56:02.234Z,33.55
2023-01-06T12:01:11.068Z,30.27
2023-01-06T12:06:07.286Z,28.90
2023-01-06T12:11:07.128Z,25.30
2023-01-06T12:16:12.236Z,23.80
2023-01-06T12:21:12.786Z,11.93
2023-01-06T12:26:12.479Z,9.35
2023-01-06T12:31:27.749Z,8.82
2023-01-06T12:36:27.873Z,7.70
2023-01-06T12:41:39.380Z,8.57
2023-01-06T12:46:42.868Z,9.70
2023-01-06T12:51:40.727Z,9.90
2023-01-06T12:56:52.180Z,10.13
2023-01-06T13:01:51.535Z,9.93
2023-01-06T13:06:47.872Z,11.60
2023-01-06T13:11:47.261Z,10.68
2023-01-06T13:16:47.862Z,9.70
2023-01-06T13:21:44.625Z,8.90
2023-01-06T13:26:44.085Z,8.70
2023-01-06T13:31:52.401Z,8.68
2023-01-06T13:36:54.593Z,8.23
2023-01-06T13:41:55.752Z,10.35
2023-01-06T13:46:53.945Z,9.07
2023-01-06T13:51:50.581Z,8.63
2023-01-06T13:57:06.807Z,10.23
2023-01-06T14:02:03.184Z,11.18
2023-01-06T14:07:00.306Z,9.48
2023-01-06T14:12:08.447Z,10.13
2023-01-06T14:17:05.688Z,10.57
2023-01-06T14:22:18.940Z,9.43
2023-01-06T14:27:15.296Z,10.50
2023-01-06T14:32:31.540Z,9.82
2023-01-06T14:37:41.127Z,11.48
2023-01-06T14:42:41.968Z,10.27
2023-01-06T14:47:43.038Z,9.73
2023-01-06T14:52:40.874Z,10.10
2023-01-06T14:57:38.572Z,10.45
2023-01-06T15:02:35.030Z,11.10
2023-01-06T15:07:31.586Z,10.50
2023-01-06T15:12:31.688Z,10.38
2023-01-06T15:17:28.192Z,12.15
2023-01-06T15:22:25.266Z,11.52
2023-01-06T15:27:21.626Z,12.55
2023-01-06T15:32:19.029Z,11.70
2023-01-06T15:37:18.325Z,12.15
2023-01-06T15:42:16.003Z,11.98
2023-01-06T15:47:12.304Z,11.68
2023-01-06T15:52:17.186Z,11.23
2023-01-06T15:57:17.025Z,12.98
2023-01-06T16:02:17.717Z,12.88
2023-01-06T16:07:44.631Z,10.98
2023-01-06T16:12:40.973Z,11.43
2023-01-06T16:17:44.708Z,10.75
2023-01-06T16:22:47.997Z,11.90
2023-01-06T16:27:46.302Z,12.77
2023-01-06T16:32:42.958Z,12.68
2023-01-06T16:37:39.282Z,12.70
2023-01-06T16:42:39.317Z,13.40
2023-01-06T16:47:35.752Z,12.05
2023-01-06T16:52:32.096Z,13.07
2023-01-06T16:57:28.608Z,13.02
2023-01-06T17:02:25.511Z,13.50
2023-01-06T17:07:22.194Z,13.25
2023-01-06T17:12:39.447Z,13.27
2023-01-06T17:17:42.465Z,14.50
2023-01-06T17:22:38.778Z,13.70
2023-01-06T17:27:35.093Z,14.07
2023-01-06T17:32:37.854Z,13.77
2023-01-06T17:37:35.639Z,14.75
2023-01-06T17:42:35.988Z,14.57
2023-01-06T17:47:41.947Z,14.45
2023-01-06T17:52:41.547Z,13.65
2023-01-06T17:57:39.162Z,14.68
2023-01-06T18:02:38.897Z,14.80
2023-01-06T18:07:35.224Z,14.90
2023-01-06T18:12:31.464Z,15.43
2023-01-06T18:17:29.896Z,15.85
2023-01-06T18:22:27.616Z,15.02
2023-01-06T18:27:24.968Z,15.10
2023-01-06T18:32:21.284Z,14.63
2023-01-06T18:37:21.154Z,13.38
2023-01-06T18:42:25.210Z,12.95
2023-01-06T18:47:22.479Z,12.73
2023-01-06T18:52:37.288Z,12.23
2023-01-06T18:57:33.560Z,12.60
2023-01-06T19:02:38.276Z,12.43
2023-01-06T19:07:34.619Z,14.43
2023-01-06T19:12:36.151Z,13.88
2023-01-06T19:17:38.268Z,13.27
2023-01-06T19:22:36.152Z,14.02
2023-01-06T19:27:32.728Z,14.60
2023-01-06T19:32:33.110Z,15.48
2023-01-06T19:37:30.716Z,14.68
2023-01-06T19:42:29.542Z,14.27
2023-01-06T19:47:31.377Z,14.80
2023-01-06T19:52:27.751Z,14.80
2023-01-06T19:57:28.428Z,15.52
2023-01-06T20:02:30.233Z,16.10
2023-01-06T20:07:26.608Z,16.73
2023-01-06T20:12:23.107Z,15.90
2023-01-06T20:17:19.376Z,17.35
2023-01-06T20:22:15.743Z,15.98
2023-01-06T20:27:11.979Z,16.10
2023-01-06T20:32:08.736Z,16.88
2023-01-06T20:37:05.116Z,16.80
2023-01-06T20:42:04.163Z,17.20
2023-01-06T20:47:00.890Z,18.30
2023-01-06T20:51:57.239Z,18.30
2023-01-06T20:56:53.914Z,17.23
2023-01-06T21:01:50.341Z,18.65
2023-01-06T21:06:47.033Z,17.92
2023-01-06T21:11:43.383Z,19.40
2023-01-06T21:16:39.664Z,19.98
2023-01-06T21:21:35.991Z,18.35
2023-01-06T21:26:32.199Z,21.80
2023-01-06T21:31:28.439Z,21.45
2023-01-06T21:36:24.759Z,21.55
2023-01-06T21:41:39.495Z,20.75
2023-01-06T21:46:39.744Z,21.98
2023-01-06T21:51:36.298Z,22.15
2023-01-06T21:56:32.869Z,23.17
2023-01-06T22:01:29.824Z,23.00
2023-01-06T22:06:28.120Z,26.02
2023-01-06T22:11:24.804Z,26.63
2023-01-06T22:16:21.208Z,24.55
2023-01-06T22:21:17.626Z,26.42
2023-01-06T22:26:13.886Z,26.95
2023-01-06T22:31:10.220Z,25.67
2023-01-06T22:36:07.036Z,24.83
2023-01-06T22:41:04.138Z,25.42
2023-01-06T22:46:00.367Z,27.00
2023-01-06T22:50:57.719Z,26.80
2023-01-06T22:55:57.876Z,28.52
2023-01-06T23:00:54.532Z,27.02
2023-01-06T23:05:54.697Z,28.48
2023-01-06T23:10:50.996Z,30.98
2023-01-06T23:15:47.314Z,30.33
2023-01-06T23:20:43.604Z,32.20
2023-01-06T23:25:40.044Z,32.10
2023-01-06T23:30:36.229Z,31.10
2023-01-06T23:35:32.463Z,32.55
2023-01-06T23:40:28.808Z,31.63
2023-01-06T23:45:25.155Z,34.03
2023-01-06T23:50:21.482Z,34.10
2023-01-06T23:55:17.674Z,35.10
